Time;durP1;ratioP1;P1;durP2;ratioP2;P2;SDS_P1;SDS_P2;PMS_P1;PMS_P2;Temp;Humidity;BMP_temperature;BMP_pressure;BME280_temperature;BME280_humidity;BME280_pressure;Samples;Min_cycle;Max_cycle;Signal;HPM_P1;HPM_P2
2021/01/28 04:15:35;;;;;;;11.25;5.13;;;-5.70;99.90;;;;;;5032511;28;20050;-71
2021/01/28 04:18:01;;;;;;;16.27;5.18;;;-5.70;99.90;;;;;;5041126;28;20040;-71
2021/01/28 04:20:30;;;;;;;10.43;5.18;;;-5.70;99.90;;;;;;5037457;28;20025;-73
2021/01/28 04:22:57;;;;;;;9.18;4.47;;;-5.70;99.90;;;;;;5042995;28;20052;-73
2021/01/28 04:25:23;;;;;;;9.85;5.00;;;-5.60;99.10;;;;;;5045155;28;20372;-73
2021/01/28 04:27:49;;;;;;;9.88;5.35;;;-5.70;98.50;;;;;;5031257;28;20040;-73
2021/01/28 04:30:25;;;;;;;8.50;4.53;;;-5.70;98.40;;;;;;5031417;28;20017;-73
2021/01/28 04:32:52;;;;;;;9.23;4.68;;;-5.80;98.00;;;;;;5045201;28;20033;-71
2021/01/28 04:35:18;;;;;;;11.40;5.10;;;-5.80;97.80;;;;;;5043489;28;20382;-71
2021/01/28 04:37:44;;;;;;;13.27;4.95;;;-5.90;97.70;;;;;;5047380;28;20071;-71
2021/01/28 04:40:17;;;;;;;10.63;4.82;;;-5.90;97.20;;;;;;5051280;28;20104;-71
2021/01/28 04:42:45;;;;;;;10.20;4.85;;;-5.90;96.70;;;;;;5051146;28;20025;-72
2021/01/28 04:45:13;;;;;;;9.57;5.47;;;-5.90;95.50;;;;;;5031407;28;20045;-71
2021/01/28 04:47:47;;;;;;;12.38;5.20;;;-5.90;95.10;;;;;;5031277;28;20036;-71
2021/01/28 04:50:21;;;;;;;11.85;5.20;;;-6.00;94.50;;;;;;5048766;28;20473;-72
2021/01/28 04:52:50;;;;;;;8.48;4.68;;;-6.00;93.70;;;;;;5049060;28;20033;-71
2021/01/28 04:55:19;;;;;;;7.75;4.93;;;-6.10;92.80;;;;;;5051790;28;20025;-71
2021/01/28 04:57:45;;;;;;;12.53;5.20;;;-6.20;92.30;;;;;;5049444;28;20039;-71
2021/01/28 05:00:12;;;;;;;8.63;4.78;;;-6.30;92.00;;;;;;5054560;28;20212;-70
2021/01/28 05:02:37;;;;;;;10.65;5.00;;;-6.40;91.60;;;;;;5049513;28;20473;-71
2021/01/28 05:05:06;;;;;;;9.25;4.38;;;-6.40;91.40;;;;;;5049426;28;20105;-71
2021/01/28 05:07:34;;;;;;;13.32;4.82;;;-6.50;90.90;;;;;;5054419;28;20399;-71
2021/01/28 05:10:09;;;;;;;7.55;4.25;;;-6.50;90.70;;;;;;5049419;28;20104;-71
2021/01/28 05:12:35;;;;;;;12.10;4.60;;;-6.60;90.30;;;;;;5046591;28;20584;-71
2021/01/28 05:15:11;;;;;;;8.00;4.82;;;-6.60;89.50;;;;;;5049202;28;20049;-69
2021/01/28 05:17:38;;;;;;;8.57;4.45;;;-6.70;89.40;;;;;;5045809;28;20042;-69
2021/01/28 05:20:04;;;;;;;7.97;4.43;;;-6.80;88.70;;;;;;5049141;28;20625;-71
2021/01/28 05:22:38;;;;;;;7.25;3.85;;;-6.80;89.50;;;;;;5049562;28;20107;-71
2021/01/28 05:25:37;;;;;;;9.18;4.30;;;-6.80;88.50;;;;;;5051577;28;20133;-71
2021/01/28 05:28:29;;;;;;;9.48;4.95;;;-6.90;88.40;;;;;;5046522;28;20033;-71
2021/01/28 05:30:55;;;;;;;10.60;4.43;;;-6.90;89.10;;;;;;5047014;28;20033;-72
2021/01/28 05:33:29;;;;;;;9.27;4.85;;;-6.90;88.80;;;;;;5053443;28;20499;-75
2021/01/28 05:36:15;;;;;;;10.10;5.22;;;-7.00;88.60;;;;;;5047874;28;20390;-74
2021/01/28 05:38:57;;;;;;;13.25;5.00;;;-7.10;87.60;;;;;;5041832;28;20047;-75
2021/01/28 05:41:36;;;;;;;8.48;4.53;;;-7.10;88.30;;;;;;5052126;28;20043;-74
2021/01/28 05:44:22;;;;;;;9.48;4.50;;;-6.80;99.90;;;;;;5033927;28;20477;-74
2021/01/28 05:47:08;;;;;;;6.07;4.15;;;-6.30;99.90;;;;;;5038562;28;20088;-74
2021/01/28 05:49:38;;;;;;;7.93;4.50;;;-6.40;94.90;;;;;;5041739;28;20071;-75
2021/01/28 05:52:26;;;;;;;11.70;5.10;;;-6.70;91.80;;;;;;5043989;28;20110;-75
2021/01/28 05:55:12;;;;;;;7.57;4.70;;;-6.90;90.70;;;;;;5048704;28;20029;-74
2021/01/28 05:58:04;;;;;;;12.25;5.00;;;-7.10;90.20;;;;;;5040371;28;20028;-75
2021/01/28 06:00:50;;;;;;;8.90;5.05;;;-7.20;89.00;;;;;;5044277;28;20032;-75
2021/01/28 06:04:04;;;;;;;8.75;4.38;;;-7.30;88.60;;;;;;5040367;28;20049;-73
2021/01/28 06:06:59;;;;;;;8.93;4.75;;;-7.40;88.10;;;;;;5030271;28;20025;-74
2021/01/28 06:09:43;;;;;;;8.48;4.40;;;-7.40;87.70;;;;;;5030628;28;20129;-73
2021/01/28 06:12:47;;;;;;;10.40;4.60;;;-7.50;87.10;;;;;;5047959;28;20039;-71
2021/01/28 06:15:40;;;;;;;10.57;4.35;;;-7.60;88.30;;;;;;5038824;28;20552;-74
2021/01/28 06:18:40;;;;;;;10.88;4.57;;;-7.60;90.10;;;;;;5045317;28;20020;-73
2021/01/28 06:21:17;;;;;;;11.68;4.55;;;-7.50;88.50;;;;;;5043052;28;20094;-71
2021/01/28 06:23:43;;;;;;;7.80;4.25;;;-7.60;87.20;;;;;;5044965;28;20021;-71
2021/01/28 06:27:00;;;;;;;7.65;4.30;;;-7.60;87.60;;;;;;5048178;28;20043;-71
2021/01/28 06:29:53;;;;;;;7.20;3.88;;;-7.60;88.80;;;;;;5029447;28;20053;-72
2021/01/28 06:32:48;;;;;;;10.57;4.72;;;-6.90;99.90;;;;;;5041412;28;20037;-73
2021/01/28 06:35:38;;;;;;;13.82;6.93;;;-7.00;98.30;;;;;;5048010;28;20013;-73
2021/01/28 06:38:41;;;;;;;11.60;4.60;;;-7.20;92.80;;;;;;5035548;28;20018;-73
2021/01/28 06:41:13;;;;;;;6.78;4.20;;;-7.50;89.70;;;;;;5038938;28;20096;-73
2021/01/28 06:43:46;;;;;;;7.95;4.32;;;-7.60;88.30;;;;;;5033128;28;20033;-73
2021/01/28 06:46:44;;;;;;;10.88;4.72;;;-7.80;87.50;;;;;;5032730;28;20037;-73
2021/01/28 06:49:36;;;;;;;8.93;4.45;;;-7.90;87.80;;;;;;5030731;28;20053;-73
2021/01/28 06:52:18;;;;;;;7.50;4.53;;;-7.90;87.40;;;;;;5052016;28;20025;-73
2021/01/28 06:55:05;;;;;;;9.63;4.20;;;-7.90;87.80;;;;;;5047993;28;20021;-72
2021/01/28 06:57:48;;;;;;;7.45;4.13;;;-7.90;87.10;;;;;;5044834;28;20025;-73
2021/01/28 07:00:23;;;;;;;10.35;4.38;;;-7.90;87.50;;;;;;5038357;28;20408;-71
2021/01/28 07:03:34;;;;;;;10.25;4.25;;;-8.00;86.70;;;;;;5044730;28;20104;-67
2021/01/28 07:06:00;;;;;;;;;;;-7.10;99.90;;;;;;5030192;28;20285;-73
2021/01/28 07:08:40;;;;;;;11.60;4.57;;;-6.40;99.90;;;;;;5035507;28;19909;-74
2021/01/28 07:11:11;;;;;;;7.40;3.42;;;-6.90;95.50;;;;;;5045679;28;20554;-72
2021/01/28 07:13:39;;;;;;;12.60;5.22;;;-7.00;99.90;;;;;;5052085;28;20386;-71
2021/01/28 07:16:15;;;;;;;11.15;4.82;;;-5.90;99.90;;;;;;5042921;28;20044;-75
2021/01/28 07:18:50;;;;;;;9.20;4.53;;;-6.40;98.60;;;;;;5043050;28;20528;-80
2021/01/28 07:21:37;;;;;;;8.13;4.32;;;-6.90;92.40;;;;;;5048755;28;20017;-69
2021/01/28 07:24:07;;;;;;;8.00;3.80;;;-6.70;99.90;;;;;;5049626;28;20021;-70
2021/01/28 07:26:54;;;;;;;12.40;4.05;;;-5.20;99.90;;;;;;5042986;28;20029;-69
2021/01/28 07:29:50;;;;;;;11.02;4.80;;;-4.00;99.90;;;;;;5043014;28;20021;-78
2021/01/28 07:32:21;;;;;;;8.40;4.40;;;-3.90;99.90;;;;;;5046897;28;20040;-80
2021/01/28 07:35:24;;;;;;;12.77;4.88;;;-5.10;99.90;;;;;;5042157;28;20033;-74
2021/01/28 07:37:54;;;;;;;15.73;5.03;;;-6.10;97.20;;;;;;5044784;28;20078;-81
2021/01/28 07:41:10;;;;;;;11.50;5.20;;;-6.80;96.10;;;;;;5050441;28;20112;-82
2021/01/28 07:43:38;;;;;;;10.77;4.85;;;-7.20;94.70;;;;;;5037386;28;20040;-79
2021/01/28 07:46:27;;;;;;;11.20;4.63;;;-7.30;95.60;;;;;;5044762;28;20389;-80
2021/01/28 07:49:12;;;;;;;13.55;5.00;;;-7.40;97.00;;;;;;5042373;28;20025;-80
2021/01/28 07:51:40;;;;;;;10.82;4.90;;;-7.50;97.10;;;;;;5044223;28;20029;-82
2021/01/28 07:54:25;;;;;;;13.35;4.47;;;-7.40;99.90;;;;;;5040222;28;20096;-76
2021/01/28 07:56:54;;;;;;;10.75;3.85;;;-7.30;99.90;;;;;;5035344;28;20437;-78
2021/01/28 07:59:25;;;;;;;10.82;4.13;;;-7.20;99.90;;;;;;5042420;28;20036;-77
2021/01/28 08:01:54;;;;;;;10.57;4.45;;;-7.20;99.90;;;;;;5041190;28;20118;-77
2021/01/28 08:04:42;;;;;;;11.88;4.18;;;-7.20;99.90;;;;;;5048774;28;20100;-77
2021/01/28 08:07:10;;;;;;;7.65;3.90;;;-7.10;99.90;;;;;;5049336;28;20503;-78
2021/01/28 08:09:55;;;;;;;9.23;4.07;;;-7.10;99.90;;;;;;5042443;28;20021;-78
2021/01/28 08:12:26;;;;;;;22.05;7.50;;;-7.10;99.90;;;;;;5042205;28;20484;-77
2021/01/28 08:14:55;;;;;;;23.02;7.20;;;-7.10;99.90;;;;;;5045542;28;20565;-73
2021/01/28 08:17:32;;;;;;;20.55;8.45;;;-7.10;99.90;;;;;;5039596;28;20032;-74
2021/01/28 08:20:32;;;;;;;14.43;5.75;;;-7.10;99.90;;;;;;5035320;28;20021;-71
2021/01/28 08:23:04;;;;;;;15.73;8.27;;;-7.20;99.90;;;;;;5047089;28;20017;-70
2021/01/28 08:25:36;;;;;;;23.00;13.50;;;-6.30;99.90;;;;;;5054560;28;20047;-71
2021/01/28 08:28:13;;;;;;;8.65;5.30;;;-6.20;99.90;;;;;;5045513;28;20082;-73
2021/01/28 08:30:41;;;;;;;15.05;7.65;;;-6.40;99.90;;;;;;5043757;28;20037;-70
2021/01/28 08:33:13;;;;;;;11.00;4.90;;;-6.60;99.90;;;;;;5049172;28;20105;-70
2021/01/28 08:35:43;;;;;;;10.43;4.75;;;-6.70;99.90;;;;;;5049936;28;20431;-74
2021/01/28 08:38:35;;;;;;;6.40;4.13;;;-6.80;99.90;;;;;;5051521;28;20018;-73
2021/01/28 08:41:05;;;;;;;10.68;4.47;;;-6.80;99.90;;;;;;5048261;28;20029;-75
2021/01/28 08:43:31;;;;;;;7.40;4.30;;;-6.80;99.90;;;;;;5049724;28;20017;-71
2021/01/28 08:46:05;;;;;;;7.57;4.38;;;-6.80;99.90;;;;;;5047982;28;20393;-71
2021/01/28 08:48:30;;;;;;;11.73;4.65;;;-6.90;99.90;;;;;;5051051;28;20021;-71
2021/01/28 08:51:29;;;;;;;8.02;4.55;;;-6.80;99.90;;;;;;5043662;28;20104;-71
2021/01/28 08:54:29;;;;;;;6.47;4.18;;;-6.80;99.90;;;;;;5044182;28;20485;-71
2021/01/28 08:56:56;;;;;;;;;;;-6.80;99.90;;;;;;5041049;28;20044;-71
2021/01/28 08:59:45;;;;;;;3.15;2.40;;;-6.80;99.90;;;;;;5055082;28;19996;-69
2021/01/28 09:02:14;;;;;;;6.88;4.05;;;-6.10;99.90;;;;;;5052431;28;20031;-70
2021/01/28 09:04:44;;;;;;;7.97;4.15;;;-3.60;99.90;;;;;;5054853;28;20094;-71
2021/01/28 09:07:10;;;;;;;;;;;-4.20;99.90;;;;;;5053417;28;20078;-71
2021/01/28 09:09:36;;;;;;;8.30;4.22;;;-4.80;99.90;;;;;;5053295;28;19904;-71
2021/01/28 09:12:30;;;;;;;13.40;4.97;;;-5.30;99.90;;;;;;5051732;28;20025;-71
2021/01/28 09:15:18;;;;;;;7.97;4.32;;;-5.70;99.90;;;;;;5041927;28;20149;-71
2021/01/28 09:17:48;;;;;;;8.48;4.20;;;-5.90;99.90;;;;;;5043639;28;20029;-71
2021/01/28 09:20:30;;;;;;;7.88;3.92;;;-6.00;99.90;;;;;;5053250;28;20017;-71
2021/01/28 09:23:09;;;;;;;11.20;4.65;;;-5.90;99.90;;;;;;5039474;28;20034;-71
2021/01/28 09:25:36;;;;;;;10.77;4.47;;;-5.50;99.90;;;;;;5050210;28;20032;-71
2021/01/28 09:28:04;;;;;;;6.93;3.78;;;-5.70;99.90;;;;;;5048282;28;20071;-71
2021/01/28 09:30:36;;;;;;;10.63;4.45;;;-5.80;99.90;;;;;;5042444;28;20531;-72
2021/01/28 09:33:29;;;;;;;5.47;3.78;;;-5.90;99.90;;;;;;5047419;28;20037;-72
2021/01/28 09:36:21;;;;;;;9.95;4.60;;;-6.00;99.90;;;;;;5044682;28;20110;-72
2021/01/28 09:39:08;;;;;;;5.90;3.53;;;-6.10;99.90;;;;;;5033986;28;20696;-72
2021/01/28 09:41:46;;;;;;;7.88;3.47;;;-6.10;99.90;;;;;;5048014;28;20481;-72
2021/01/28 09:44:36;;;;;;;8.00;4.03;;;-6.20;99.90;;;;;;5033996;28;20021;-71
2021/01/28 09:47:13;;;;;;;10.23;4.50;;;-6.20;99.90;;;;;;5033610;28;20120;-71
2021/01/28 09:49:39;;;;;;;12.93;4.63;;;-6.20;99.90;;;;;;5046508;28;20381;-71
2021/01/28 09:52:08;;;;;;;7.55;4.00;;;-6.10;99.90;;;;;;5039795;28;20021;-71
2021/01/28 09:54:34;;;;;;;9.52;4.18;;;-6.10;99.90;;;;;;5041185;28;20037;-71
2021/01/28 09:57:03;;;;;;;7.78;3.88;;;-6.10;99.90;;;;;;5047510;28;20110;-71
2021/01/28 09:59:29;;;;;;;6.45;3.92;;;-6.10;99.90;;;;;;5047310;28;20104;-70
2021/01/28 10:01:56;;;;;;;8.43;4.53;;;-6.20;99.90;;;;;;5044728;28;20104;-70
2021/01/28 10:04:22;;;;;;;13.80;4.35;;;-6.10;99.90;;;;;;5049162;28;20409;-70
2021/01/28 10:06:47;;;;;;;9.20;4.07;;;-6.10;99.90;;;;;;5048784;28;20037;-70
2021/01/28 10:09:13;;;;;;;10.00;3.97;;;-6.10;99.90;;;;;;5044603;28;20186;-70
2021/01/28 10:11:39;;;;;;;9.88;4.20;;;-6.10;99.90;;;;;;5045682;28;20021;-70
2021/01/28 10:14:05;;;;;;;9.70;4.15;;;-6.10;99.90;;;;;;5052486;28;20427;-70
2021/01/28 10:16:32;;;;;;;10.85;4.70;;;-6.00;99.90;;;;;;5044882;28;20040;-70
2021/01/28 10:18:58;;;;;;;11.05;4.53;;;-6.00;99.90;;;;;;5044288;28;20036;-70
2021/01/28 10:21:24;;;;;;;7.30;3.83;;;-5.90;99.90;;;;;;5048800;28;20028;-70
2021/01/28 10:23:50;;;;;;;6.07;3.88;;;-5.90;99.90;;;;;;5048664;28;20481;-71
2021/01/28 10:26:15;;;;;;;10.82;3.90;;;-5.90;99.90;;;;;;5043903;28;20033;-70
2021/01/28 10:28:41;;;;;;;9.65;3.95;;;-5.90;99.90;;;;;;5044795;28;20101;-70
2021/01/28 10:31:08;;;;;;;9.35;4.07;;;-5.90;99.90;;;;;;5051820;28;20499;-70
2021/01/28 10:33:37;;;;;;;11.32;4.05;;;-6.00;99.90;;;;;;5044869;28;20120;-71
2021/01/28 10:36:04;;;;;;;8.73;3.97;;;-5.90;99.90;;;;;;5038175;28;20108;-72
2021/01/28 10:38:30;;;;;;;11.48;4.30;;;-5.90;99.90;;;;;;5038063;28;20045;-72
2021/01/28 10:40:56;;;;;;;7.15;3.92;;;-5.90;99.90;;;;;;5040520;28;20493;-72
2021/01/28 10:43:23;;;;;;;8.00;3.85;;;-5.90;99.90;;;;;;5046658;28;20049;-72
2021/01/28 10:45:49;;;;;;;5.95;3.78;;;-5.90;99.90;;;;;;5031660;28;20079;-73
2021/01/28 10:48:16;;;;;;;7.45;3.33;;;-5.90;99.90;;;;;;5046574;28;20048;-72
2021/01/28 10:50:42;;;;;;;7.32;3.55;;;-5.90;99.90;;;;;;5041387;28;20473;-72
2021/01/28 10:53:08;;;;;;;6.30;3.30;;;-5.90;99.90;;;;;;5038247;28;20084;-72
2021/01/28 10:55:35;;;;;;;8.32;3.50;;;-5.90;99.90;;;;;;5045884;28;20104;-72
2021/01/28 10:58:01;;;;;;;5.40;3.40;;;-5.90;99.90;;;;;;5045655;28;20029;-72
2021/01/28 11:00:28;;;;;;;8.57;3.80;;;-5.90;99.90;;;;;;5035705;28;20036;-72
2021/01/28 11:02:54;;;;;;;7.53;3.45;;;-5.90;99.90;;;;;;5049523;28;20044;-71
2021/01/28 11:05:29;;;;;;;5.72;3.55;;;-5.90;99.90;;;;;;5051838;28;20059;-70
2021/01/28 11:07:55;;;;;;;6.20;3.05;;;-5.90;99.90;;;;;;5051640;28;20143;-73
2021/01/28 11:10:23;;;;;;;8.43;3.85;;;-5.90;99.90;;;;;;5051540;28;20517;-73
2021/01/28 11:12:52;;;;;;;6.25;3.10;;;-5.90;99.90;;;;;;5052322;28;20043;-73
2021/01/28 11:15:19;;;;;;;8.55;3.72;;;-5.90;99.90;;;;;;5051214;28;20045;-73
2021/01/28 11:17:44;;;;;;;5.85;3.05;;;-6.00;99.90;;;;;;5051717;28;20020;-73
2021/01/28 11:20:13;;;;;;;7.05;3.88;;;-5.90;99.90;;;;;;5051970;28;20410;-73
2021/01/28 11:22:42;;;;;;;5.82;3.50;;;-5.90;99.90;;;;;;5049963;28;20024;-72
2021/01/28 11:25:12;;;;;;;10.95;3.55;;;-5.90;99.90;;;;;;5052017;28;20040;-72
2021/01/28 11:27:38;;;;;;;7.47;3.50;;;-5.80;99.90;;;;;;5051248;28;20025;-72
2021/01/28 11:30:05;;;;;;;8.48;4.18;;;-5.80;99.90;;;;;;5051359;28;20022;-72
2021/01/28 11:32:31;;;;;;;4.68;3.17;;;-5.80;99.90;;;;;;5048088;28;20586;-72
2021/01/28 11:34:57;;;;;;;4.60;3.30;;;-5.90;99.90;;;;;;5041384;28;20111;-74
2021/01/28 11:37:22;;;;;;;3.92;2.90;;;-5.90;99.90;;;;;;5051542;28;20063;-73
2021/01/28 11:39:49;;;;;;;5.95;3.25;;;-5.90;99.90;;;;;;5048953;28;20043;-73
2021/01/28 11:42:16;;;;;;;6.93;3.03;;;-5.90;99.90;;;;;;5041121;28;20025;-73
2021/01/28 11:44:42;;;;;;;9.63;3.42;;;-5.90;99.90;;;;;;5037742;28;20029;-73
2021/01/28 11:47:08;;;;;;;6.60;3.75;;;-5.80;99.90;;;;;;5048513;28;20047;-70
2021/01/28 11:49:33;;;;;;;5.60;3.58;;;-5.80;99.90;;;;;;5044429;28;20026;-71
2021/01/28 11:51:59;;;;;;;6.15;3.17;;;-5.80;99.90;;;;;;5049443;28;20485;-71
2021/01/28 11:54:25;;;;;;;6.40;3.58;;;-5.80;99.90;;;;;;5043611;28;20109;-75
2021/01/28 11:56:50;;;;;;;10.25;3.60;;;-5.80;99.90;;;;;;5042796;28;20052;-76
2021/01/28 11:59:16;;;;;;;7.63;3.53;;;-5.80;99.90;;;;;;5050536;28;20021;-71
2021/01/28 12:01:42;;;;;;;8.75;3.60;;;-5.80;99.90;;;;;;5049508;28;20031;-72
2021/01/28 12:04:07;;;;;;;5.97;3.42;;;-5.80;99.90;;;;;;5040002;28;20028;-72
2021/01/28 12:06:33;;;;;;;8.18;3.50;;;-5.70;99.90;;;;;;5040643;28;20065;-71
2021/01/28 12:09:00;;;;;;;9.35;3.47;;;-5.80;99.90;;;;;;5048121;28;20052;-71
2021/01/28 12:11:26;;;;;;;7.32;2.90;;;-5.70;99.90;;;;;;5042703;28;20029;-71
2021/01/28 12:13:51;;;;;;;7.90;3.40;;;-5.80;99.90;;;;;;5039496;28;20028;-71
2021/01/28 12:16:17;;;;;;;8.32;3.22;;;-5.80;99.90;;;;;;5044245;28;20041;-71
2021/01/28 12:18:43;;;;;;;7.82;3.53;;;-5.80;99.90;;;;;;5046798;28;20024;-71
2021/01/28 12:21:09;;;;;;;9.48;3.20;;;-5.80;99.90;;;;;;5039747;28;20029;-71
2021/01/28 12:23:34;;;;;;;6.90;3.00;;;-5.80;99.90;;;;;;5040795;28;20553;-71
2021/01/28 12:26:00;;;;;;;7.97;3.50;;;-5.90;99.90;;;;;;5047754;28;20051;-71
2021/01/28 12:28:26;;;;;;;8.48;4.13;;;-5.90;99.90;;;;;;5042646;28;20063;-71
2021/01/28 12:30:51;;;;;;;5.43;3.05;;;-5.90;99.90;;;;;;5039813;28;20056;-72
2021/01/28 12:33:17;;;;;;;7.45;3.20;;;-5.90;99.90;;;;;;5050633;28;20483;-72
2021/01/28 12:35:43;;;;;;;10.38;3.55;;;-4.80;99.90;;;;;;5039792;28;20530;-75
2021/01/28 12:38:09;;;;;;;8.80;3.25;;;-3.60;99.90;;;;;;5048955;28;20458;-75
2021/01/28 12:40:35;;;;;;;4.55;3.17;;;-3.20;99.90;;;;;;5049613;28;20025;-74
2021/01/28 12:43:00;;;;;;;8.32;3.00;;;-3.40;99.90;;;;;;5050538;28;20074;-74
2021/01/28 12:45:27;;;;;;;6.53;3.33;;;-3.70;99.90;;;;;;5043589;28;20025;-74
2021/01/28 12:47:52;;;;;;;8.27;3.25;;;-4.10;99.90;;;;;;5044370;28;20130;-74
2021/01/28 12:50:19;;;;;;;9.05;4.15;;;-4.40;99.90;;;;;;5037144;28;20480;-74
2021/01/28 12:52:46;;;;;;;7.25;3.30;;;-4.60;99.90;;;;;;5039962;28;20022;-74
2021/01/28 12:55:12;;;;;;;6.97;3.13;;;-4.70;99.90;;;;;;5047006;28;20032;-72
2021/01/28 12:57:39;;;;;;;6.15;3.33;;;-4.80;99.90;;;;;;5043897;28;20075;-71
2021/01/28 13:00:11;;;;;;;6.80;3.10;;;-4.80;99.90;;;;;;5044312;28;20143;-72
2021/01/28 13:02:36;;;;;;;6.68;2.67;;;-5.00;99.90;;;;;;5046005;28;20384;-72
2021/01/28 13:05:03;;;;;;;6.72;2.92;;;-5.00;99.90;;;;;;5045407;28;20021;-72
2021/01/28 13:07:28;;;;;;;6.97;3.00;;;-5.00;99.90;;;;;;5045850;28;20056;-73
2021/01/28 13:09:55;;;;;;;5.55;3.00;;;-4.70;99.90;;;;;;5044085;28;20144;-73
2021/01/28 13:12:21;;;;;;;6.32;3.67;;;-4.40;99.90;;;;;;5040300;28;20031;-72
2021/01/28 13:14:47;;;;;;;8.80;2.97;;;-4.50;99.90;;;;;;5048435;28;20044;-76
2021/01/28 13:17:13;;;;;;;5.30;2.92;;;-4.60;99.90;;;;;;5039838;28;20493;-75
2021/01/28 13:19:38;;;;;;;9.45;3.85;;;-4.10;99.90;;;;;;5041389;28;20032;-77
2021/01/28 13:22:04;;;;;;;6.32;3.08;;;-4.10;99.90;;;;;;5048569;28;20048;-78
2021/01/28 13:24:30;;;;;;;5.78;3.00;;;-4.50;98.00;;;;;;5052538;28;20059;-78
2021/01/28 13:26:56;;;;;;;5.43;2.90;;;-4.90;96.90;;;;;;5041645;28;20033;-78
2021/01/28 13:29:22;;;;;;;6.65;2.92;;;-5.10;96.60;;;;;;5052323;28;20071;-78
2021/01/28 13:31:48;;;;;;;8.57;3.47;;;-5.40;97.30;;;;;;5054183;28;20029;-78
2021/01/28 13:34:13;;;;;;;10.55;3.08;;;-5.50;98.20;;;;;;5052357;28;20017;-77
2021/01/28 13:36:40;;;;;;;7.10;3.20;;;-5.60;99.00;;;;;;5047365;28;20028;-78
2021/01/28 13:39:06;;;;;;;6.03;3.00;;;-5.60;98.70;;;;;;5045291;28;20047;-78
2021/01/28 13:41:32;;;;;;;6.90;3.10;;;-5.70;99.00;;;;;;5036740;28;20117;-78
2021/01/28 13:43:58;;;;;;;7.82;3.20;;;-5.80;99.60;;;;;;5032999;28;20100;-78
2021/01/28 13:46:23;;;;;;;5.13;2.97;;;-5.80;99.50;;;;;;5033631;28;20037;-78
2021/01/28 13:48:50;;;;;;;7.72;3.42;;;-5.80;99.90;;;;;;5053940;28;20025;-78
2021/01/28 13:51:15;;;;;;;11.85;3.47;;;-5.90;99.90;;;;;;5053762;28;20032;-78
2021/01/28 13:53:41;;;;;;;4.93;2.88;;;-5.90;99.90;;;;;;5040892;28;20535;-77
2021/01/28 13:56:07;;;;;;;7.45;3.75;;;-5.70;99.90;;;;;;5050529;28;20043;-76
2021/01/28 13:58:34;;;;;;;5.47;3.15;;;-4.60;99.90;;;;;;5040693;28;20017;-73
2021/01/28 14:00:59;;;;;;;7.47;2.85;;;-4.70;99.90;;;;;;5044967;28;20472;-73
2021/01/28 14:03:25;;;;;;;5.55;3.20;;;-5.00;99.90;;;;;;5043659;28;20062;-75
2021/01/28 14:05:51;;;;;;;5.55;3.08;;;-5.10;99.90;;;;;;5038487;28;20275;-83
2021/01/28 14:08:16;;;;;;;4.97;2.83;;;-5.30;99.50;;;;;;5035118;28;20120;-78
2021/01/28 14:10:42;;;;;;;5.18;2.80;;;-5.50;99.20;;;;;;5046796;28;20017;-78
2021/01/28 14:13:08;;;;;;;4.10;2.72;;;-5.30;99.90;;;;;;5041704;28;20108;-76
2021/01/28 14:15:34;;;;;;;5.28;3.10;;;-5.40;99.90;;;;;;5041553;28;20128;-77
2021/01/28 14:18:00;;;;;;;10.45;3.13;;;-5.60;99.60;;;;;;5036225;28;20033;-77
2021/01/28 14:20:27;;;;;;;10.10;3.28;;;-5.70;99.90;;;;;;5035785;28;20441;-78
2021/01/28 14:22:55;;;;;;;4.28;2.60;;;-5.80;99.80;;;;;;5044552;28;20489;-77
2021/01/28 14:25:23;;;;;;;4.13;2.75;;;-5.90;99.90;;;;;;5041530;28;20102;-76
2021/01/28 14:27:49;;;;;;;6.57;3.20;;;-5.50;99.90;;;;;;5041301;28;20527;-76
2021/01/28 14:30:18;;;;;;;7.25;3.00;;;-5.60;99.90;;;;;;5052568;28;20111;-77
2021/01/28 14:32:44;;;;;;;7.43;2.92;;;-5.70;99.70;;;;;;5053571;28;20028;-78
2021/01/28 14:35:13;;;;;;;5.78;3.00;;;-5.80;99.80;;;;;;5042052;28;20025;-77
2021/01/28 14:37:39;;;;;;;4.80;3.00;;;-5.90;99.80;;;;;;5037065;28;20022;-77
2021/01/28 14:40:06;;;;;;;5.10;3.10;;;-6.10;99.80;;;;;;5037946;28;20049;-74
2021/01/28 14:42:32;;;;;;;6.13;3.28;;;-6.10;99.90;;;;;;5042955;28;20519;-77
2021/01/28 14:44:58;;;;;;;12.45;3.50;;;-6.10;99.60;;;;;;5041142;28;20116;-76
2021/01/28 14:47:24;;;;;;;5.97;3.08;;;-6.20;99.50;;;;;;5049224;28;20144;-76
2021/01/28 14:49:50;;;;;;;7.90;3.10;;;-6.20;99.90;;;;;;5039114;28;20040;-77
2021/01/28 14:52:15;;;;;;;6.90;3.05;;;-6.20;99.60;;;;;;5046636;28;20056;-75
2021/01/28 14:54:41;;;;;;;6.65;3.15;;;-6.20;99.70;;;;;;5046306;28;20067;-75
2021/01/28 14:57:08;;;;;;;7.07;2.83;;;-6.20;99.90;;;;;;5042428;28;20025;-77
2021/01/28 14:59:33;;;;;;;5.28;2.67;;;-6.20;99.40;;;;;;5051904;28;20021;-70
2021/01/28 15:02:00;;;;;;;5.13;2.80;;;-6.30;98.90;;;;;;5051607;28;20518;-70
2021/01/28 15:04:25;;;;;;;8.73;3.60;;;-6.30;99.00;;;;;;5042535;28;20026;-75
2021/01/28 15:06:53;;;;;;;4.80;2.80;;;-6.40;99.30;;;;;;5046249;28;20055;-74
2021/01/28 15:09:19;;;;;;;4.75;2.60;;;-6.40;99.10;;;;;;5040382;28;20029;-74
2021/01/28 15:11:45;;;;;;;5.45;2.50;;;-6.40;99.20;;;;;;5049605;28;20029;-74
2021/01/28 15:14:11;;;;;;;5.50;2.70;;;-6.50;99.10;;;;;;5046011;28;20028;-75
2021/01/28 15:16:36;;;;;;;5.70;2.85;;;-6.50;99.50;;;;;;5044716;28;20115;-75
2021/01/28 15:19:03;;;;;;;5.50;3.05;;;-6.50;99.80;;;;;;5044044;28;20021;-71
2021/01/28 15:21:28;;;;;;;5.40;2.90;;;-6.60;99.40;;;;;;5046035;28;20542;-70
2021/01/28 15:23:54;;;;;;;4.15;2.72;;;-6.60;99.20;;;;;;5042393;28;20029;-70
2021/01/28 15:26:20;;;;;;;4.38;2.83;;;-6.60;99.60;;;;;;5049841;28;20036;-70
2021/01/28 15:28:47;;;;;;;4.85;3.00;;;-6.60;99.20;;;;;;5045947;28;20025;-70
2021/01/28 15:31:13;;;;;;;6.18;3.00;;;-6.60;99.70;;;;;;5045584;28;20021;-70
2021/01/28 15:33:39;;;;;;;6.68;2.88;;;-6.60;99.10;;;;;;5044201;28;20028;-70
2021/01/28 15:36:05;;;;;;;6.47;2.83;;;-6.60;99.30;;;;;;5039652;28;20386;-70
2021/01/28 15:38:31;;;;;;;6.35;2.80;;;-6.60;98.80;;;;;;5052139;28;20056;-70
2021/01/28 15:40:58;;;;;;;4.45;2.80;;;-6.60;98.80;;;;;;5039586;28;20547;-71
2021/01/28 15:43:25;;;;;;;8.07;3.17;;;-6.70;98.90;;;;;;5050140;28;20500;-70
2021/01/28 15:45:54;;;;;;;5.43;2.53;;;-6.70;99.00;;;;;;5050247;28;20376;-70
2021/01/28 15:48:23;;;;;;;5.43;3.00;;;-6.70;98.90;;;;;;5046142;28;20020;-69
2021/01/28 15:50:49;;;;;;;7.13;3.00;;;-6.60;98.60;;;;;;5041000;28;20079;-70
2021/01/28 15:53:15;;;;;;;3.35;2.60;;;-6.70;98.80;;;;;;5036837;28;20021;-70
2021/01/28 15:55:41;;;;;;;4.15;2.40;;;-6.70;98.30;;;;;;5044820;28;20028;-71
2021/01/28 15:58:08;;;;;;;5.85;2.92;;;-6.70;98.10;;;;;;5048432;28;20021;-71
2021/01/28 16:00:38;;;;;;;4.35;2.72;;;-6.70;98.30;;;;;;5038247;28;20021;-71
2021/01/28 16:03:04;;;;;;;4.03;3.08;;;-6.70;98.60;;;;;;5040571;28;20104;-70
2021/01/28 16:05:30;;;;;;;7.25;3.40;;;-6.80;98.30;;;;;;5046374;28;20026;-72
2021/01/28 16:07:55;;;;;;;8.65;4.10;;;-6.70;99.10;;;;;;5036408;28;20505;-71
2021/01/28 16:10:21;;;;;;;8.55;4.07;;;-6.60;98.70;;;;;;5044253;28;20017;-70
2021/01/28 16:12:47;;;;;;;8.18;3.58;;;-6.60;97.90;;;;;;5043168;28;20047;-71
2021/01/28 16:15:14;;;;;;;8.45;3.92;;;-6.50;98.40;;;;;;5049028;28;20471;-70
2021/01/28 16:17:40;;;;;;;5.65;3.25;;;-6.40;98.50;;;;;;5034894;28;20025;-71
2021/01/28 16:20:08;;;;;;;6.13;2.92;;;-6.50;97.40;;;;;;5044405;28;20054;-70
2021/01/28 16:22:35;;;;;;;3.35;2.33;;;-6.50;96.80;;;;;;5041773;28;20091;-70
2021/01/28 16:25:03;;;;;;;6.57;3.22;;;-6.50;96.90;;;;;;5044707;28;20025;-70
2021/01/28 16:27:29;;;;;;;2.60;2.40;;;-6.50;97.70;;;;;;5048789;28;20052;-71
2021/01/28 16:29:56;;;;;;;6.05;2.58;;;-6.50;97.00;;;;;;5040477;28;20025;-70
2021/01/28 16:32:22;;;;;;;6.07;3.20;;;-6.50;96.40;;;;;;5040100;28;20030;-70
2021/01/28 16:34:48;;;;;;;5.47;3.15;;;-6.60;96.30;;;;;;5045492;28;20034;-70
2021/01/28 16:37:15;;;;;;;5.63;2.70;;;-6.60;96.40;;;;;;5044883;28;20365;-70
2021/01/28 16:39:41;;;;;;;5.20;3.03;;;-6.70;96.60;;;;;;5049092;28;20187;-70
2021/01/28 16:42:07;;;;;;;5.55;3.05;;;-6.90;96.40;;;;;;5039283;28;20036;-70
2021/01/28 16:44:34;;;;;;;5.93;2.97;;;-6.90;97.00;;;;;;5040526;28;20021;-71
2021/01/28 16:47:05;;;;;;;3.80;2.85;;;-6.90;96.80;;;;;;5049080;28;20065;-70
2021/01/28 16:49:31;;;;;;;4.72;2.97;;;-7.00;96.80;;;;;;5047954;28;20234;-71
2021/01/28 16:51:56;;;;;;;7.00;3.40;;;-7.00;96.90;;;;;;5036255;28;20389;-71
2021/01/28 16:54:22;;;;;;;5.60;3.58;;;-7.10;97.20;;;;;;5045740;28;20025;-71
2021/01/28 16:56:48;;;;;;;5.18;2.35;;;-6.80;99.90;;;;;;5040643;28;20071;-70
2021/01/28 16:59:14;;;;;;;5.03;2.45;;;-5.70;99.90;;;;;;5046197;28;20117;-71
2021/01/28 17:01:40;;;;;;;6.05;2.58;;;-4.80;99.90;;;;;;5048990;28;20380;-70
2021/01/28 17:04:06;;;;;;;3.88;2.75;;;-5.00;99.90;;;;;;5041814;28;20025;-70
2021/01/28 17:06:32;;;;;;;4.68;2.42;;;-5.40;99.40;;;;;;5041798;28;20041;-70
2021/01/28 17:08:58;;;;;;;5.35;2.83;;;-5.80;96.90;;;;;;5048958;28;20025;-70
2021/01/28 17:11:24;;;;;;;3.00;2.60;;;-6.00;96.30;;;;;;5045310;28;20108;-71
2021/01/28 17:13:49;;;;;;;4.82;2.60;;;-6.10;96.40;;;;;;5054409;28;20478;-70
2021/01/28 17:16:16;;;;;;;3.78;2.42;;;-6.20;96.20;;;;;;5053752;28;20049;-70
2021/01/28 17:18:42;;;;;;;5.15;3.00;;;-6.30;95.90;;;;;;5055080;28;20033;-70
2021/01/28 17:21:08;;;;;;;6.20;2.65;;;-6.40;95.30;;;;;;5062115;28;20092;-70